createdAt,value
2023-03-06T00:03:28.180Z,15.60
2023-03-06T00:08:31.413Z,18.70
2023-03-06T00:13:40.615Z,22.50
2023-03-06T00:18:44.128Z,21.10
2023-03-06T00:23:46.484Z,19.40
2023-03-06T00:28:49.277Z,20.60
2023-03-06T00:33:53.633Z,20.80
2023-03-06T00:38:56.133Z,20.60
2023-03-06T00:44:04.052Z,22.00
2023-03-06T00:49:10.525Z,21.40
2023-03-06T00:54:33.327Z,21.70
2023-03-06T00:59:35.924Z,21.30
2023-03-06T01:04:39.035Z,20.70
2023-03-06T01:09:41.296Z,21.20
2023-03-06T01:14:43.371Z,22.00
2023-03-06T01:19:45.446Z,20.10
2023-03-06T01:24:49.295Z,20.80
2023-03-06T01:29:51.733Z,18.90
2023-03-06T01:34:54.277Z,19.50
2023-03-06T01:39:56.440Z,19.00
2023-03-06T01:45:08.504Z,19.50
2023-03-06T01:50:12.743Z,17.60
2023-03-06T01:55:21.294Z,15.90
2023-03-06T02:00:29.651Z,16.00
2023-03-06T02:05:32.591Z,15.10
2023-03-06T02:10:35.140Z,13.30
2023-03-06T02:15:39.847Z,13.70
2023-03-06T02:21:20.409Z,12.70
2023-03-06T02:26:23.083Z,13.30
2023-03-06T02:31:28.984Z,11.40
2023-03-06T02:36:35.894Z,12.40
2023-03-06T02:41:38.276Z,12.70
2023-03-06T02:46:41.077Z,12.20
2023-03-06T02:51:43.909Z,13.20
2023-03-06T02:56:48.125Z,12.60
2023-03-06T03:01:50.597Z,11.90
2023-03-06T03:06:53.521Z,12.90
2023-03-06T03:11:55.703Z,12.70
2023-03-06T03:17:01.195Z,12.80
2023-03-06T03:22:03.384Z,13.10
2023-03-06T03:27:06.580Z,14.30
2023-03-06T03:32:09.908Z,12.60
2023-03-06T03:37:14.095Z,12.80
2023-03-06T03:42:17.582Z,13.10
2023-03-06T03:47:20.101Z,13.40
2023-03-06T03:52:23.153Z,12.20
2023-03-06T03:57:26.460Z,11.70
2023-03-06T04:02:29.338Z,12.70
2023-03-06T04:07:46.860Z,13.90
2023-03-06T04:12:49.519Z,12.40
2023-03-06T04:17:51.951Z,15.30
2023-03-06T04:22:56.850Z,16.30
2023-03-06T04:27:59.238Z,15.20
2023-03-06T04:33:03.506Z,16.90
2023-03-06T04:38:06.008Z,20.10
2023-03-06T04:43:09.244Z,22.90
2023-03-06T04:48:18.868Z,19.00
2023-03-06T04:53:22.473Z,23.20
2023-03-06T04:58:25.876Z,25.10
2023-03-06T05:03:28.388Z,27.70
2023-03-06T05:08:31.139Z,27.50
2023-03-06T05:13:33.755Z,27.20
2023-03-06T05:18:37.940Z,31.10
2023-03-06T05:23:40.446Z,31.90
2023-03-06T05:28:42.849Z,32.60
2023-03-06T05:33:44.865Z,32.60
2023-03-06T05:38:46.830Z,30.90
2023-03-06T05:43:49.717Z,30.90
2023-03-06T05:48:56.118Z,33.10
2023-03-06T05:53:58.520Z,33.10
2023-03-06T05:59:00.760Z,32.80
2023-03-06T06:04:03.277Z,30.80
2023-03-06T06:09:05.110Z,30.80
2023-03-06T06:14:07.204Z,27.10
2023-03-06T06:19:09.682Z,22.30
2023-03-06T06:24:11.895Z,21.70
2023-03-06T06:29:13.880Z,21.50
2023-03-06T06:34:17.052Z,22.10
2023-03-06T06:39:21.434Z,18.80
2023-03-06T06:44:23.815Z,18.10
2023-03-06T06:49:25.914Z,18.00
2023-03-06T06:54:28.404Z,16.00
2023-03-06T06:59:30.305Z,14.40
2023-03-06T07:04:32.255Z,15.60
2023-03-06T07:09:34.504Z,14.80
2023-03-06T07:14:37.233Z,13.80
2023-03-06T07:19:39.663Z,13.10
2023-03-06T07:24:41.847Z,12.60
2023-03-06T07:29:44.681Z,12.00
2023-03-06T07:34:47.207Z,11.00
2023-03-06T07:39:49.128Z,10.70
2023-03-06T07:44:52.862Z,10.50
2023-03-06T07:49:57.264Z,10.70
2023-03-06T07:54:59.866Z,11.10
2023-03-06T08:00:03.333Z,9.50
2023-03-06T08:05:16.688Z,10.00
2023-03-06T08:10:18.785Z,9.50
2023-03-06T08:15:20.922Z,9.70
2023-03-06T08:20:23.302Z,8.80
2023-03-06T08:25:25.247Z,9.00
2023-03-06T08:30:27.081Z,9.50
2023-03-06T08:35:28.981Z,9.60
2023-03-06T08:40:31.213Z,9.60
2023-03-06T08:45:33.200Z,9.80
2023-03-06T08:50:35.600Z,9.50
2023-03-06T08:55:38.427Z,9.10
2023-03-06T09:00:40.646Z,8.90
2023-03-06T09:05:42.707Z,8.90
2023-03-06T09:10:48.380Z,8.20
2023-03-06T09:15:54.463Z,8.90
2023-03-06T09:20:56.954Z,9.20
2023-03-06T09:26:00.352Z,8.80
2023-03-06T09:31:07.851Z,7.70
2023-03-06T09:36:18.966Z,8.90
2023-03-06T09:41:34.286Z,7.70
2023-03-06T09:47:14.619Z,7.70
2023-03-06T09:52:36.586Z,7.30
2023-03-06T09:57:42.833Z,7.70
2023-03-06T10:02:50.688Z,8.00
2023-03-06T10:08:05.754Z,7.50
2023-03-06T10:13:28.272Z,7.50
2023-03-06T10:18:30.450Z,7.60
2023-03-06T10:23:46.924Z,6.50
2023-03-06T10:29:14.719Z,6.30
2023-03-06T10:34:22.172Z,5.80
2023-03-06T10:39:24.065Z,6.00
2023-03-06T10:44:25.981Z,6.70
2023-03-06T10:49:36.610Z,6.50
2023-03-06T10:54:44.378Z,7.70
2023-03-06T10:59:58.586Z,5.10
2023-03-06T11:05:02.092Z,6.40
2023-03-06T11:10:19.008Z,5.80
2023-03-06T11:15:22.556Z,5.20
2023-03-06T11:20:24.834Z,5.70
2023-03-06T11:25:34.503Z,5.50
2023-03-06T11:30:43.904Z,5.40
2023-03-06T11:35:52.115Z,5.50
2023-03-06T11:40:59.002Z,5.20
2023-03-06T11:46:25.229Z,5.10
2023-03-06T11:51:33.286Z,4.60
2023-03-06T11:56:38.391Z,4.70
2023-03-06T12:02:00.624Z,4.90
2023-03-06T12:07:21.548Z,4.40
2023-03-06T12:12:46.423Z,4.00
2023-03-06T12:18:16.370Z,4.20
2023-03-06T12:23:39.129Z,4.40
2023-03-06T12:29:07.411Z,3.90
2023-03-06T12:34:34.109Z,4.30
2023-03-06T12:40:13.744Z,4.00
2023-03-06T12:45:39.642Z,3.80
2023-03-06T12:50:45.623Z,2.40
2023-03-06T12:55:50.303Z,2.50
2023-03-06T13:01:16.775Z,2.80
2023-03-06T13:06:50.887Z,2.90
2023-03-06T13:12:05.985Z,3.80
2023-03-06T13:17:25.465Z,4.10
2023-03-06T13:22:29.712Z,3.20
2023-03-06T13:27:54.805Z,3.00
2023-03-06T13:32:57.424Z,2.50
2023-03-06T13:38:00.436Z,2.90
2023-03-06T13:43:08.088Z,2.90
2023-03-06T13:48:47.713Z,3.30
2023-03-06T13:54:26.281Z,3.20
2023-03-06T13:59:37.199Z,2.90
2023-03-06T14:04:47.428Z,3.50
2023-03-06T14:10:11.045Z,3.50
2023-03-06T14:15:31.727Z,4.30
2023-03-06T14:20:40.539Z,4.20
2023-03-06T14:25:45.312Z,4.30
2023-03-06T14:30:53.688Z,4.60
2023-03-06T14:35:59.679Z,3.50
2023-03-06T14:41:03.342Z,3.90
2023-03-06T14:46:06.960Z,4.00
2023-03-06T14:51:17.025Z,4.10
2023-03-06T14:56:25.831Z,3.70
2023-03-06T15:01:38.511Z,4.00
2023-03-06T15:06:43.725Z,4.40
2023-03-06T15:11:57.905Z,4.50
2023-03-06T15:17:18.429Z,4.60
2023-03-06T15:22:31.624Z,4.70
2023-03-06T15:27:33.719Z,4.70
2023-03-06T15:32:42.877Z,4.30
2023-03-06T15:37:44.974Z,4.70
2023-03-06T15:42:47.382Z,5.90
2023-03-06T15:47:52.095Z,6.70
2023-03-06T15:52:54.174Z,7.20
2023-03-06T15:58:02.244Z,7.50
2023-03-06T16:03:05.040Z,7.00
2023-03-06T16:08:07.526Z,7.00
2023-03-06T16:13:22.401Z,7.40
2023-03-06T16:18:25.115Z,7.10
2023-03-06T16:23:27.078Z,7.20
2023-03-06T16:28:29.049Z,7.60
2023-03-06T16:33:30.993Z,7.10
2023-03-06T16:38:32.937Z,7.20
2023-03-06T16:43:35.563Z,8.40
2023-03-06T16:48:37.799Z,9.10
2023-03-06T16:53:39.930Z,8.50
2023-03-06T16:58:45.490Z,10.10
2023-03-06T17:03:47.972Z,9.80
2023-03-06T17:08:51.057Z,10.40
2023-03-06T17:13:54.835Z,9.80
2023-03-06T17:18:58.288Z,9.70
2023-03-06T17:24:02.502Z,8.20
2023-03-06T17:29:07.009Z,6.90
2023-03-06T17:34:09.446Z,5.70
2023-03-06T17:39:12.949Z,6.00
2023-03-06T17:44:16.973Z,6.30
2023-03-06T17:49:21.645Z,6.30
2023-03-06T17:54:30.075Z,6.20
2023-03-06T17:59:36.297Z,6.30
2023-03-06T18:04:38.597Z,6.40
2023-03-06T18:09:42.878Z,6.50
2023-03-06T18:14:45.579Z,7.70
2023-03-06T18:19:48.182Z,9.10
2023-03-06T18:24:51.081Z,11.20
2023-03-06T18:29:55.550Z,11.90
2023-03-06T18:34:58.309Z,12.40
2023-03-06T18:40:00.835Z,13.70
2023-03-06T18:45:03.367Z,14.70
2023-03-06T18:50:06.832Z,15.20
2023-03-06T18:55:10.364Z,14.60
2023-03-06T19:00:22.472Z,15.70
2023-03-06T19:05:24.563Z,14.90
2023-03-06T19:10:27.064Z,16.50
2023-03-06T19:15:30.265Z,16.50
2023-03-06T19:20:33.020Z,14.70
2023-03-06T19:25:35.821Z,16.40
2023-03-06T19:30:40.925Z,15.30
2023-03-06T19:35:43.430Z,16.40
2023-03-06T19:40:51.967Z,16.80
2023-03-06T19:45:55.218Z,15.50
2023-03-06T19:50:57.196Z,17.60
2023-03-06T19:56:21.530Z,18.20
2023-03-06T20:01:26.696Z,17.90
2023-03-06T20:06:33.760Z,17.70
2023-03-06T20:11:35.977Z,17.20
2023-03-06T20:16:39.549Z,14.90
2023-03-06T20:21:42.712Z,13.80
2023-03-06T20:26:46.824Z,13.00
2023-03-06T20:31:49.454Z,13.00
2023-03-06T20:36:51.510Z,11.60
2023-03-06T20:41:54.975Z,12.10
2023-03-06T20:46:57.088Z,10.70
2023-03-06T20:51:59.156Z,11.50
2023-03-06T20:57:01.405Z,10.80
2023-03-06T21:02:04.142Z,10.60
2023-03-06T21:07:07.085Z,10.40
2023-03-06T21:12:09.413Z,9.40
2023-03-06T21:17:13.843Z,10.40
2023-03-06T21:22:17.189Z,9.90
2023-03-06T21:27:19.559Z,10.50
2023-03-06T21:32:21.716Z,10.30
2023-03-06T21:37:23.739Z,8.70
2023-03-06T21:42:26.253Z,9.40
2023-03-06T21:47:28.545Z,9.70
2023-03-06T21:52:30.574Z,10.30
2023-03-06T21:57:32.798Z,9.10
2023-03-06T22:02:35.552Z,9.90
2023-03-06T22:07:38.269Z,11.50
2023-03-06T22:12:41.989Z,11.50
2023-03-06T22:17:48.723Z,13.60
2023-03-06T22:22:51.005Z,15.30
2023-03-06T22:27:53.130Z,17.00
2023-03-06T22:32:57.118Z,18.00
2023-03-06T22:37:59.668Z,18.50
2023-03-06T22:43:02.646Z,21.70
2023-03-06T22:48:11.171Z,19.70
2023-03-06T22:53:20.957Z,22.10
2023-03-06T22:58:23.270Z,20.20
2023-03-06T23:03:25.189Z,20.50
2023-03-06T23:08:27.200Z,19.20
2023-03-06T23:13:29.118Z,19.20
2023-03-06T23:18:52.461Z,19.40
2023-03-06T23:24:12.958Z,18.00
2023-03-06T23:29:16.358Z,20.10
2023-03-06T23:34:18.401Z,18.70
2023-03-06T23:39:21.374Z,18.30
2023-03-06T23:44:23.242Z,17.50
2023-03-06T23:49:25.192Z,19.10
2023-03-06T23:54:27.179Z,19.10
2023-03-06T23:59:29.493Z,18.70
